Terminal Aerodrome Forecast
Issued by NWS Goodland, KS

Home | Current Version | Previous Version | Text Only | Print | Product List | Glossary On
Versions: 1 2 3 4 5 6 7 8 9 10 11 12 13 14 15 16 17
000
FTUS43 KGLD 281100
TAFGLD
TAF
KGLD 281120Z 2812/2912 15006KT P6SM SCT100 SCT250
     FM281600 16013G18KT P6SM SCT060 SCT140 SCT300
     FM281900 16017G26KT P6SM BKN060
     FM290000 16012KT P6SM BKN070
     FM290100 16010KT P6SM BKN070=

USA.gov is the U.S. government's official web portal to all federal, state and local government web resources and services.